createdAt,value
2022-11-23T00:00:16.836Z,1002.85
2022-11-23T00:01:16.991Z,1002.79
2022-11-23T00:02:17.207Z,1002.81
2022-11-23T00:03:17.333Z,1002.85
2022-11-23T00:04:17.512Z,1002.82
2022-11-23T00:05:17.684Z,1002.83
2022-11-23T00:06:17.842Z,1002.80
2022-11-23T00:07:18.042Z,1002.84
2022-11-23T00:08:18.162Z,1002.90
2022-11-23T00:09:18.331Z,1002.86
2022-11-23T00:10:18.517Z,1002.87
2022-11-23T00:11:18.676Z,1002.95
2022-11-23T00:12:18.861Z,1002.95
2022-11-23T00:13:19.015Z,1002.88
2022-11-23T00:14:19.184Z,1002.85
2022-11-23T00:15:19.362Z,1002.87
2022-11-23T00:16:19.525Z,1002.85
2022-11-23T00:17:19.683Z,1002.91
2022-11-23T00:18:19.850Z,1002.85
2022-11-23T00:19:20.006Z,1002.90
2022-11-23T00:20:20.206Z,1002.89
2022-11-23T00:21:20.354Z,1002.87
2022-11-23T00:22:20.518Z,1002.83
2022-11-23T00:23:20.684Z,1002.82
2022-11-23T00:24:20.855Z,1002.82
2022-11-23T00:25:21.037Z,1002.89
2022-11-23T00:26:21.197Z,1002.89
2022-11-23T00:27:21.369Z,1002.87
2022-11-23T00:28:21.528Z,1002.88
2022-11-23T00:29:21.697Z,1002.93
2022-11-23T00:30:21.888Z,1002.85
2022-11-23T00:31:22.039Z,1002.90
2022-11-23T00:32:22.212Z,1002.90
2022-11-23T00:33:22.362Z,1002.94
2022-11-23T00:34:22.543Z,1002.95
2022-11-23T00:35:22.704Z,1002.94
2022-11-23T00:36:22.858Z,1002.91
2022-11-23T00:37:23.020Z,1002.95
2022-11-23T00:38:23.190Z,1002.91
2022-11-23T00:39:23.349Z,1002.94
2022-11-23T00:40:23.540Z,1002.97
2022-11-23T00:41:23.694Z,1002.97
2022-11-23T00:42:23.860Z,1002.99
2022-11-23T00:43:24.020Z,1002.96
2022-11-23T00:44:24.189Z,1002.97
2022-11-23T00:45:24.371Z,1002.94
2022-11-23T00:46:24.520Z,1003.01
2022-11-23T00:47:24.689Z,1003.02
2022-11-23T00:48:24.852Z,1003.01
2022-11-23T00:49:25.011Z,1002.99
2022-11-23T00:50:25.200Z,1003.01
2022-11-23T00:51:25.354Z,1003.01
2022-11-23T00:52:25.522Z,1003.05
2022-11-23T00:53:25.683Z,1003.05
2022-11-23T00:54:25.853Z,1003.04
2022-11-23T00:55:26.022Z,1003.05
2022-11-23T00:56:26.181Z,1003.01
2022-11-23T00:57:26.342Z,1003.07
2022-11-23T00:58:26.512Z,1003.00
2022-11-23T00:59:26.672Z,1003.00
2022-11-23T01:00:26.850Z,1002.99
2022-11-23T01:01:27.057Z,1002.98
2022-11-23T01:02:27.189Z,1002.96
2022-11-23T01:03:27.343Z,1002.95
2022-11-23T01:04:27.532Z,1002.94
2022-11-23T01:05:27.686Z,1002.95
2022-11-23T01:06:27.861Z,1002.99
2022-11-23T01:07:28.062Z,1002.99
2022-11-23T01:08:28.184Z,1002.98
2022-11-23T01:09:28.700Z,1002.95
2022-11-23T01:10:28.545Z,1002.98
2022-11-23T01:11:28.697Z,1003.00
2022-11-23T01:12:28.873Z,1003.00
2022-11-23T01:13:29.024Z,1002.98
2022-11-23T01:14:29.205Z,1002.97
2022-11-23T01:15:29.356Z,1003.00
2022-11-23T01:16:29.526Z,1002.96
2022-11-23T01:17:29.686Z,1002.97
2022-11-23T01:18:29.875Z,1002.91
2022-11-23T01:19:30.412Z,1002.99
2022-11-23T01:20:30.226Z,1002.97
2022-11-23T01:21:30.386Z,1002.98
2022-11-23T01:22:30.549Z,1003.00
2022-11-23T01:23:30.719Z,1003.05
2022-11-23T01:24:30.886Z,1003.00
2022-11-23T01:25:31.061Z,1003.05
2022-11-23T01:26:31.227Z,1003.02
2022-11-23T01:27:31.381Z,1003.02
2022-11-23T01:28:31.552Z,1003.07
2022-11-23T01:29:31.981Z,1003.00
2022-11-23T01:30:31.925Z,1003.07
2022-11-23T01:31:32.068Z,1003.01
2022-11-23T01:32:32.239Z,1003.01
2022-11-23T01:33:32.396Z,1003.08
2022-11-23T01:34:32.564Z,1003.01
2022-11-23T01:35:32.761Z,1003.04
2022-11-23T01:36:32.889Z,1003.03
2022-11-23T01:37:33.046Z,1003.06
2022-11-23T01:38:33.220Z,1003.07
2022-11-23T01:39:33.747Z,1003.06
2022-11-23T01:40:33.551Z,1003.07
2022-11-23T01:41:33.701Z,1003.11
2022-11-23T01:42:33.880Z,1003.12
2022-11-23T01:43:34.036Z,1003.09
2022-11-23T01:44:34.201Z,1003.10
2022-11-23T01:45:34.382Z,1003.14
2022-11-23T01:46:34.541Z,1003.13
2022-11-23T01:47:34.707Z,1003.13
2022-11-23T01:48:34.872Z,1003.18
2022-11-23T01:49:35.165Z,1003.15
2022-11-23T01:50:35.247Z,1003.18
2022-11-23T01:51:35.400Z,1003.15
2022-11-23T01:52:35.583Z,1003.24
2022-11-23T01:53:35.733Z,1003.19
2022-11-23T01:54:35.904Z,1003.20
2022-11-23T01:55:36.084Z,1003.20
2022-11-23T01:56:36.246Z,1003.21
2022-11-23T01:57:36.416Z,1003.16
2022-11-23T01:58:36.564Z,1003.19
2022-11-23T01:59:36.735Z,1003.16
2022-11-23T02:00:36.904Z,1003.18
2022-11-23T02:01:37.103Z,1003.17
2022-11-23T02:02:37.253Z,1003.17
2022-11-23T02:03:37.403Z,1003.18
2022-11-23T02:04:37.546Z,1003.20
2022-11-23T02:05:37.736Z,1003.23
2022-11-23T02:06:37.885Z,1003.20
2022-11-23T02:07:38.096Z,1003.19
2022-11-23T02:08:38.225Z,1003.19
2022-11-23T02:09:38.396Z,1003.20
2022-11-23T02:10:38.556Z,1003.19
2022-11-23T02:11:38.717Z,1003.22
2022-11-23T02:12:38.876Z,1003.18
2022-11-23T02:13:39.047Z,1003.22
2022-11-23T02:14:39.217Z,1003.15
2022-11-23T02:15:39.415Z,1003.15
2022-11-23T02:16:39.526Z,1003.18
2022-11-23T02:17:39.687Z,1003.19
2022-11-23T02:18:39.857Z,1003.14
2022-11-23T02:19:40.019Z,1003.13
2022-11-23T02:20:40.218Z,1003.11
2022-11-23T02:21:40.347Z,1003.12
2022-11-23T02:22:40.508Z,1003.08
2022-11-23T02:23:40.678Z,1003.10
2022-11-23T02:24:40.838Z,1003.05
2022-11-23T02:25:41.047Z,1003.06
2022-11-23T02:26:41.173Z,1003.07
2022-11-23T02:27:46.643Z,1003.08
2022-11-23T02:28:42.509Z,1002.98
2022-11-23T02:29:41.691Z,1003.00
2022-11-23T02:30:41.861Z,1003.01
2022-11-23T02:31:42.033Z,1002.99
2022-11-23T02:32:42.191Z,1002.97
2022-11-23T02:33:42.351Z,1003.01
2022-11-23T02:34:42.522Z,1003.01
2022-11-23T02:35:42.685Z,1003.02
2022-11-23T02:36:42.863Z,1003.02
2022-11-23T02:37:43.024Z,1003.05
2022-11-23T02:38:43.183Z,1003.04
2022-11-23T02:39:43.357Z,1003.00
2022-11-23T02:40:43.535Z,1003.00
2022-11-23T02:41:43.705Z,1002.98
2022-11-23T02:42:43.852Z,1003.00
2022-11-23T02:43:44.026Z,1002.93
2022-11-23T02:44:44.182Z,1002.95
2022-11-23T02:45:44.351Z,1002.97
2022-11-23T02:46:44.551Z,1002.97
2022-11-23T02:47:44.684Z,1002.98
2022-11-23T02:48:44.839Z,1002.98
2022-11-23T02:49:45.021Z,1003.01
2022-11-23T02:50:45.175Z,1003.02
2022-11-23T02:51:45.384Z,1003.06
2022-11-23T02:52:45.494Z,1003.05
2022-11-23T02:53:45.674Z,1003.05
2022-11-23T02:54:45.822Z,1003.03
2022-11-23T02:55:45.986Z,1003.10
2022-11-23T02:56:46.165Z,1003.11
2022-11-23T02:57:46.324Z,1003.12
2022-11-23T02:58:46.486Z,1003.13
2022-11-23T02:59:46.656Z,1003.15
2022-11-23T03:00:46.891Z,1003.16
2022-11-23T03:01:47.016Z,1003.13
2022-11-23T03:02:47.177Z,1003.20
2022-11-23T03:03:47.345Z,1003.17
2022-11-23T03:04:47.503Z,1003.19
2022-11-23T03:05:47.666Z,1003.20
2022-11-23T03:06:47.846Z,1003.18
2022-11-23T03:07:48.047Z,1003.20
2022-11-23T03:08:48.177Z,1003.18
2022-11-23T03:09:48.350Z,1003.20
2022-11-23T03:10:51.502Z,1003.25
2022-11-23T03:11:48.709Z,1003.26
2022-11-23T03:12:48.859Z,1003.29
2022-11-23T03:13:49.028Z,1003.28
2022-11-23T03:14:49.189Z,1003.27
2022-11-23T03:15:49.359Z,1003.29
2022-11-23T03:16:49.759Z,1003.28
2022-11-23T03:17:49.690Z,1003.33
2022-11-23T03:18:49.859Z,1003.29
2022-11-23T03:19:50.040Z,1003.34
2022-11-23T03:20:50.191Z,1003.28
2022-11-23T03:21:50.369Z,1003.27
2022-11-23T03:22:50.554Z,1003.32
2022-11-23T03:23:50.715Z,1003.31
2022-11-23T03:24:50.870Z,1003.31
2022-11-23T03:25:51.070Z,1003.28
2022-11-23T03:26:51.237Z,1003.31
2022-11-23T03:27:51.391Z,1003.29
2022-11-23T03:28:51.563Z,1003.24
2022-11-23T03:29:51.777Z,1003.29
2022-11-23T03:30:51.893Z,1003.30
2022-11-23T03:31:52.069Z,1003.27
2022-11-23T03:32:52.231Z,1003.28
2022-11-23T03:33:52.403Z,1003.26
2022-11-23T03:34:52.566Z,1003.25
2022-11-23T03:35:52.727Z,1003.24
2022-11-23T03:36:52.882Z,1003.21
2022-11-23T03:37:53.074Z,1003.22
2022-11-23T03:38:53.234Z,1003.16
2022-11-23T03:39:53.403Z,1003.17
2022-11-23T03:40:53.568Z,1003.11
2022-11-23T03:41:53.733Z,1003.10
2022-11-23T03:42:53.919Z,1003.11
2022-11-23T03:43:54.084Z,1003.14
2022-11-23T03:44:54.246Z,1003.12
2022-11-23T03:45:54.432Z,1003.11
2022-11-23T03:46:54.584Z,1003.16
2022-11-23T03:47:54.823Z,1003.17
2022-11-23T03:48:54.934Z,1003.17
2022-11-23T03:49:55.158Z,1003.19
2022-11-23T03:50:55.285Z,1003.15
2022-11-23T03:51:55.456Z,1003.13
2022-11-23T03:52:55.616Z,1003.16
2022-11-23T03:53:55.844Z,1003.14
2022-11-23T03:54:55.991Z,1003.12
2022-11-23T03:55:56.155Z,1003.12
2022-11-23T03:56:56.310Z,1003.16
2022-11-23T03:57:56.476Z,1003.14
2022-11-23T03:58:56.661Z,1003.12
2022-11-23T03:59:56.827Z,1003.17
2022-11-23T04:00:57.057Z,1003.18
2022-11-23T04:01:57.159Z,1003.20
2022-11-23T04:02:57.337Z,1003.19
2022-11-23T04:03:57.487Z,1003.24
2022-11-23T04:04:57.655Z,1003.22
2022-11-23T04:05:57.818Z,1003.28
2022-11-23T04:06:57.995Z,1003.24
2022-11-23T04:07:58.169Z,1003.22
2022-11-23T04:09:02.089Z,1003.23
2022-11-23T04:09:58.509Z,1003.21
2022-11-23T04:10:58.660Z,1003.23
2022-11-23T04:11:58.837Z,1003.22
2022-11-23T04:12:59.011Z,1003.25
2022-11-23T04:13:59.173Z,1003.22
2022-11-23T04:14:59.329Z,1003.22
2022-11-23T04:15:59.497Z,1003.18
2022-11-23T04:16:59.662Z,1003.24
2022-11-23T04:17:59.838Z,1003.21
2022-11-23T04:18:59.990Z,1003.16
2022-11-23T04:20:00.168Z,1003.20
2022-11-23T04:21:00.336Z,1003.24
2022-11-23T04:22:00.494Z,1003.20
2022-11-23T04:23:00.671Z,1003.25
2022-11-23T04:24:00.840Z,1003.27
2022-11-23T04:25:00.996Z,1003.26
2022-11-23T04:26:01.170Z,1003.28
2022-11-23T04:27:01.339Z,1003.28
2022-11-23T04:28:01.601Z,1003.30
2022-11-23T04:29:01.645Z,1003.32
2022-11-23T04:30:01.825Z,1003.24
2022-11-23T04:31:01.995Z,1003.21
2022-11-23T04:32:02.173Z,1003.24
2022-11-23T04:33:02.323Z,1003.24
2022-11-23T04:34:02.492Z,1003.20
2022-11-23T04:35:02.659Z,1003.25
2022-11-23T04:36:02.835Z,1003.28
2022-11-23T04:37:03.003Z,1003.26
2022-11-23T04:38:03.161Z,1003.30
2022-11-23T04:39:03.315Z,1003.29
2022-11-23T04:40:03.500Z,1003.31
2022-11-23T04:41:03.653Z,1003.36
2022-11-23T04:42:03.837Z,1003.32
2022-11-23T04:43:03.994Z,1003.35
2022-11-23T04:44:04.157Z,1003.30
2022-11-23T04:45:04.323Z,1003.28
2022-11-23T04:46:04.495Z,1003.28
2022-11-23T04:47:04.666Z,1003.21
2022-11-23T04:48:04.825Z,1003.25
2022-11-23T04:49:04.989Z,1003.25
2022-11-23T04:50:05.175Z,1003.27
2022-11-23T04:51:05.336Z,1003.28
2022-11-23T04:52:05.535Z,1003.25
2022-11-23T04:53:05.658Z,1003.31
2022-11-23T04:54:05.827Z,1003.25
2022-11-23T04:55:05.978Z,1003.27
2022-11-23T04:56:06.148Z,1003.29
2022-11-23T04:57:06.556Z,1003.26
2022-11-23T04:58:06.477Z,1003.33
2022-11-23T04:59:06.640Z,1003.31
2022-11-23T05:00:06.808Z,1003.30
2022-11-23T05:01:07.037Z,1003.31
2022-11-23T05:02:07.177Z,1003.32
2022-11-23T05:03:07.328Z,1003.34
2022-11-23T05:04:07.515Z,1003.29
2022-11-23T05:05:07.668Z,1003.30
2022-11-23T05:06:07.840Z,1003.30
2022-11-23T05:07:08.045Z,1003.34
2022-11-23T05:08:08.202Z,1003.33
2022-11-23T05:09:08.358Z,1003.31
2022-11-23T05:10:08.529Z,1003.29
2022-11-23T05:11:08.689Z,1003.27
2022-11-23T05:12:08.873Z,1003.28
2022-11-23T05:13:09.033Z,1003.26
2022-11-23T05:14:09.204Z,1003.22
2022-11-23T05:15:09.389Z,1003.25
2022-11-23T05:16:09.542Z,1003.23
2022-11-23T05:17:09.939Z,1003.24
2022-11-23T05:18:09.869Z,1003.22
2022-11-23T05:19:10.025Z,1003.21
2022-11-23T05:20:10.210Z,1003.18
2022-11-23T05:21:10.355Z,1003.19
2022-11-23T05:22:10.568Z,1003.21
2022-11-23T05:23:10.688Z,1003.16
2022-11-23T05:24:10.859Z,1003.13
2022-11-23T05:25:11.020Z,1003.12
2022-11-23T05:26:11.186Z,1003.12
2022-11-23T05:27:11.377Z,1003.10
2022-11-23T05:28:38.387Z,1003.11
2022-11-23T05:29:12.720Z,1003.12
2022-11-23T05:30:11.915Z,1003.16
2022-11-23T05:31:12.070Z,1003.18
2022-11-23T05:32:12.480Z,1003.19
2022-11-23T05:33:12.404Z,1003.38
2022-11-23T05:34:12.573Z,1003.36
2022-11-23T05:35:12.735Z,1003.32
2022-11-23T05:36:12.906Z,1003.37
2022-11-23T05:37:13.083Z,1003.39
2022-11-23T05:38:13.254Z,1003.39
2022-11-23T05:39:13.404Z,1003.39
2022-11-23T05:40:13.579Z,1003.42
2022-11-23T05:41:13.734Z,1003.37
2022-11-23T05:42:13.910Z,1003.36
2022-11-23T05:43:14.066Z,1003.33
2022-11-23T05:44:14.246Z,1003.31
2022-11-23T05:45:14.417Z,1003.37
2022-11-23T05:46:14.588Z,1003.37
2022-11-23T05:47:14.747Z,1003.30
2022-11-23T05:48:14.905Z,1003.32
2022-11-23T05:49:15.069Z,1003.31
2022-11-23T05:50:15.237Z,1003.30
2022-11-23T05:51:15.407Z,1003.32
2022-11-23T05:52:15.584Z,1003.31
2022-11-23T05:53:15.737Z,1003.34
2022-11-23T05:54:15.894Z,1003.30
2022-11-23T05:55:16.077Z,1003.32
2022-11-23T05:56:16.234Z,1003.29
2022-11-23T05:57:16.384Z,1003.34
2022-11-23T05:58:16.560Z,1003.34
2022-11-23T05:59:16.746Z,1003.33
2022-11-23T06:00:16.881Z,1003.36
2022-11-23T06:01:17.032Z,1003.38
2022-11-23T06:02:17.203Z,1003.42
2022-11-23T06:03:17.374Z,1003.40
2022-11-23T06:04:17.614Z,1003.41
2022-11-23T06:05:17.702Z,1003.36
2022-11-23T06:06:17.868Z,1003.35
2022-11-23T06:07:18.047Z,1003.33
2022-11-23T06:08:18.209Z,1003.34
2022-11-23T06:09:18.360Z,1003.36
2022-11-23T06:10:18.535Z,1003.38
2022-11-23T06:11:18.699Z,1003.37
2022-11-23T06:12:18.855Z,1003.37
2022-11-23T06:13:19.048Z,1003.37
2022-11-23T06:14:19.200Z,1003.38
2022-11-23T06:15:19.373Z,1003.39
2022-11-23T06:16:19.531Z,1003.39
2022-11-23T06:17:19.705Z,1003.39
2022-11-23T06:18:19.871Z,1003.36
2022-11-23T06:19:20.037Z,1003.42
2022-11-23T06:20:20.205Z,1003.41
2022-11-23T06:21:20.360Z,1003.42
2022-11-23T06:22:20.542Z,1003.46
2022-11-23T06:23:20.720Z,1003.44
2022-11-23T06:24:20.881Z,1003.47
2022-11-23T06:25:21.073Z,1003.47
2022-11-23T06:26:21.257Z,1003.47
2022-11-23T06:27:21.465Z,1003.46
2022-11-23T06:28:21.585Z,1003.47
2022-11-23T06:29:21.747Z,1003.47
2022-11-23T06:30:21.902Z,1003.48
2022-11-23T06:31:22.074Z,1003.47
2022-11-23T06:32:22.255Z,1003.53
2022-11-23T06:33:22.468Z,1003.51
2022-11-23T06:34:22.604Z,1003.53
2022-11-23T06:35:22.775Z,1003.54
2022-11-23T06:36:22.934Z,1003.52
2022-11-23T06:37:23.106Z,1003.54
2022-11-23T06:38:23.286Z,1003.53
2022-11-23T06:39:23.454Z,1003.51
2022-11-23T06:40:23.616Z,1003.54
2022-11-23T06:41:25.957Z,1003.55
2022-11-23T06:42:38.899Z,1003.55
2022-11-23T06:43:25.116Z,1003.56
2022-11-23T06:44:24.518Z,1003.56
2022-11-23T06:45:24.467Z,1003.54
2022-11-23T06:46:24.642Z,1003.54
2022-11-23T06:47:26.621Z,1003.55
2022-11-23T06:48:24.972Z,1003.58
2022-11-23T06:49:25.179Z,1003.54
2022-11-23T06:50:25.307Z,1003.53
2022-11-23T06:51:25.497Z,1003.51
2022-11-23T06:52:25.668Z,1003.54
2022-11-23T06:53:25.856Z,1003.49
2022-11-23T06:54:27.410Z,1003.49
2022-11-23T06:55:26.217Z,1003.50
2022-11-23T06:56:26.389Z,1003.52
2022-11-23T06:57:26.569Z,1003.56
2022-11-23T06:58:26.770Z,1003.54
2022-11-23T06:59:26.919Z,1003.60
2022-11-23T07:00:27.108Z,1003.58
2022-11-23T07:01:27.310Z,1003.64
2022-11-23T07:02:27.441Z,1003.65
2022-11-23T07:03:27.683Z,1003.63
2022-11-23T07:04:27.819Z,1003.71
2022-11-23T07:05:27.961Z,1003.67
2022-11-23T07:06:28.158Z,1003.64
2022-11-23T07:07:28.339Z,1003.68
2022-11-23T07:08:28.484Z,1003.67
2022-11-23T07:09:28.802Z,1003.64
2022-11-23T07:10:28.902Z,1003.67
2022-11-23T07:11:29.015Z,1003.66
2022-11-23T07:12:29.192Z,1003.71
2022-11-23T07:13:29.372Z,1003.68
2022-11-23T07:14:29.584Z,1003.67
2022-11-23T07:15:29.722Z,1003.71
2022-11-23T07:16:29.893Z,1003.67
2022-11-23T07:17:30.081Z,1003.71
2022-11-23T07:18:30.247Z,1003.71
2022-11-23T07:19:30.893Z,1003.76
2022-11-23T07:20:30.602Z,1003.77
2022-11-23T07:21:30.774Z,1003.75
2022-11-23T07:22:30.954Z,1003.72
2022-11-23T07:23:31.137Z,1003.76
2022-11-23T07:24:37.913Z,1003.78
2022-11-23T07:25:32.467Z,1003.74
2022-11-23T07:26:31.625Z,1003.75
2022-11-23T07:27:31.805Z,1003.78
2022-11-23T07:28:31.983Z,1003.75
2022-11-23T07:29:32.388Z,1003.81
2022-11-23T07:30:32.317Z,1003.80
2022-11-23T07:31:32.494Z,1003.84
2022-11-23T07:32:32.665Z,1003.89
2022-11-23T07:33:32.856Z,1003.89
2022-11-23T07:34:32.998Z,1003.90
2022-11-23T07:35:33.177Z,1003.91
2022-11-23T07:36:33.362Z,1003.88
2022-11-23T07:37:33.506Z,1003.92
2022-11-23T07:38:33.708Z,1003.89
2022-11-23T07:39:55.638Z,1003.95
2022-11-23T07:40:35.027Z,1003.98
2022-11-23T07:41:34.197Z,1003.93
2022-11-23T07:42:40.026Z,1003.96
2022-11-23T07:43:35.556Z,1003.98
2022-11-23T07:44:34.702Z,1003.95
2022-11-23T07:45:34.873Z,1003.95
2022-11-23T07:46:35.026Z,1003.98
2022-11-23T07:47:35.203Z,1004.01
2022-11-23T07:48:36.695Z,1004.00
2022-11-23T07:49:35.526Z,1004.01
2022-11-23T07:50:35.689Z,1004.01
2022-11-23T07:51:35.860Z,1004.01
2022-11-23T07:52:36.043Z,1004.04
2022-11-23T07:53:36.248Z,1003.97
2022-11-23T07:54:36.389Z,1003.99
2022-11-23T07:55:36.569Z,1004.01
2022-11-23T07:56:36.761Z,1004.07
2022-11-23T07:57:36.908Z,1004.11
2022-11-23T07:58:37.109Z,1004.12
2022-11-23T07:59:37.260Z,1004.12
2022-11-23T08:00:37.451Z,1004.07
2022-11-23T08:01:37.608Z,1004.06
2022-11-23T08:02:37.819Z,1004.06
2022-11-23T08:03:37.999Z,1004.07
2022-11-23T08:04:38.143Z,1004.09
2022-11-23T08:05:38.338Z,1004.02
2022-11-23T08:06:38.468Z,1004.02
2022-11-23T08:07:38.651Z,1004.02
2022-11-23T08:08:38.798Z,1004.01
2022-11-23T08:09:39.226Z,1004.03
2022-11-23T08:10:45.089Z,1004.06
2022-11-23T08:11:40.370Z,1004.05
2022-11-23T08:12:39.524Z,1004.04
2022-11-23T08:13:39.713Z,1004.08
2022-11-23T08:14:39.907Z,1004.08
2022-11-23T08:15:40.063Z,1004.12
2022-11-23T08:16:40.260Z,1004.10
2022-11-23T08:17:40.429Z,1004.08
2022-11-23T08:18:40.610Z,1004.09
2022-11-23T08:19:40.823Z,1004.08
2022-11-23T08:20:40.975Z,1004.10
2022-11-23T08:21:41.155Z,1004.10
2022-11-23T08:22:41.330Z,1004.10
2022-11-23T08:23:41.523Z,1004.04
2022-11-23T08:24:41.704Z,1004.06
2022-11-23T08:25:41.860Z,1004.05
2022-11-23T08:26:42.016Z,1004.05
2022-11-23T08:27:42.185Z,1004.07
2022-11-23T08:28:42.350Z,1004.10
2022-11-23T08:29:42.531Z,1004.09
2022-11-23T08:30:42.691Z,1004.13
2022-11-23T08:31:42.872Z,1004.15
2022-11-23T08:32:43.050Z,1004.17
2022-11-23T08:33:43.227Z,1004.14
2022-11-23T08:34:43.427Z,1004.14
2022-11-23T08:35:43.578Z,1004.14
2022-11-23T08:36:43.758Z,1004.14
2022-11-23T08:37:43.948Z,1004.08
2022-11-23T08:38:44.137Z,1004.06
2022-11-23T08:39:44.346Z,1004.13
2022-11-23T08:40:44.517Z,1004.13
2022-11-23T08:41:44.668Z,1004.08
2022-11-23T08:42:44.848Z,1004.10
2022-11-23T08:43:45.039Z,1004.11
2022-11-23T08:44:45.229Z,1004.11
2022-11-23T08:45:45.377Z,1004.17
2022-11-23T08:46:45.524Z,1004.19
2022-11-23T08:47:45.711Z,1004.15
2022-11-23T08:48:45.892Z,1004.14
2022-11-23T08:49:46.100Z,1004.14
2022-11-23T08:50:46.246Z,1004.18
2022-11-23T08:51:50.103Z,1004.16
2022-11-23T08:52:46.589Z,1004.18
2022-11-23T08:53:46.772Z,1004.16
2022-11-23T08:54:46.973Z,1004.21
2022-11-23T08:55:47.122Z,1004.24
2022-11-23T08:56:47.305Z,1004.20
2022-11-23T08:57:47.492Z,1004.21
2022-11-23T08:58:47.643Z,1004.21
2022-11-23T08:59:47.843Z,1004.22
2022-11-23T09:00:48.010Z,1004.23
2022-11-23T09:01:48.246Z,1004.21
2022-11-23T09:02:48.343Z,1004.17
2022-11-23T09:03:48.523Z,1004.18
2022-11-23T09:04:48.705Z,1004.18
2022-11-23T09:05:48.943Z,1004.19
2022-11-23T09:06:49.073Z,1004.17
2022-11-23T09:07:49.375Z,1004.17
2022-11-23T09:08:49.446Z,1004.14
2022-11-23T09:09:49.616Z,1004.13
2022-11-23T09:10:51.784Z,1004.10
2022-11-23T09:11:49.966Z,1004.13
2022-11-23T09:12:50.116Z,1004.12
2022-11-23T09:13:50.289Z,1004.16
2022-11-23T09:14:50.449Z,1004.18
2022-11-23T09:15:50.601Z,1004.18
2022-11-23T09:16:50.794Z,1004.18
2022-11-23T09:17:50.945Z,1004.12
2022-11-23T09:18:51.154Z,1004.10
2022-11-23T09:19:51.315Z,1004.09
2022-11-23T09:20:51.487Z,1004.09
2022-11-23T09:21:51.698Z,1004.02
2022-11-23T09:22:51.852Z,1004.05
2022-11-23T09:23:52.139Z,1004.04
2022-11-23T09:24:52.254Z,1004.10
2022-11-23T09:25:52.396Z,1004.07
2022-11-23T09:26:52.592Z,1004.10
2022-11-23T09:27:52.739Z,1004.08
2022-11-23T09:28:52.930Z,1004.10
2022-11-23T09:29:53.112Z,1004.04
2022-11-23T09:30:53.301Z,1004.06
2022-11-23T09:31:53.509Z,1003.99
2022-11-23T09:32:53.660Z,1003.99
2022-11-23T09:33:53.836Z,1003.97
2022-11-23T09:34:54.020Z,1004.02
2022-11-23T09:35:54.214Z,1003.98
2022-11-23T09:36:54.401Z,1003.95
2022-11-23T09:37:54.581Z,1003.97
2022-11-23T09:38:57.329Z,1003.97
2022-11-23T09:39:54.911Z,1003.99
2022-11-23T09:40:57.824Z,1003.98
2022-11-23T09:41:55.255Z,1004.00
2022-11-23T09:42:55.440Z,1003.95
2022-11-23T09:43:55.624Z,1003.96
2022-11-23T09:44:55.822Z,1003.97
2022-11-23T09:45:56.030Z,1003.91
2022-11-23T09:46:56.174Z,1003.92
2022-11-23T09:47:56.355Z,1003.89
2022-11-23T09:48:56.572Z,1003.91
2022-11-23T09:49:56.723Z,1003.88
2022-11-23T09:50:56.952Z,1003.90
2022-11-23T09:51:57.077Z,1003.89
2022-11-23T09:52:57.266Z,1003.92
2022-11-23T09:53:57.458Z,1003.89
2022-11-23T09:54:57.618Z,1003.99
2022-11-23T09:55:57.836Z,1003.92
2022-11-23T09:57:01.650Z,1003.93
2022-11-23T09:57:58.126Z,1003.91
2022-11-23T09:58:58.303Z,1003.95
2022-11-23T09:59:58.456Z,1003.88
2022-11-23T10:00:58.885Z,1003.88
2022-11-23T10:01:58.821Z,1003.89
2022-11-23T10:02:58.969Z,1003.90
2022-11-23T10:03:59.131Z,1003.88
2022-11-23T10:04:59.316Z,1003.85
2022-11-23T10:05:59.479Z,1003.93
2022-11-23T10:06:59.633Z,1003.93
2022-11-23T10:07:59.792Z,1003.86
2022-11-23T10:08:59.975Z,1003.87
2022-11-23T10:10:00.141Z,1003.85
2022-11-23T10:11:00.330Z,1003.82
2022-11-23T10:12:00.480Z,1003.83
2022-11-23T10:13:00.640Z,1003.85
2022-11-23T10:14:00.789Z,1003.81
2022-11-23T10:15:00.984Z,1003.82
2022-11-23T10:16:01.176Z,1003.85
2022-11-23T10:17:01.312Z,1003.82
2022-11-23T10:18:01.481Z,1003.82
2022-11-23T10:19:01.649Z,1003.81
2022-11-23T10:20:01.813Z,1003.83
2022-11-23T10:21:02.007Z,1003.85
2022-11-23T10:22:02.166Z,1003.84
2022-11-23T10:23:02.339Z,1003.82
2022-11-23T10:24:02.489Z,1003.84
2022-11-23T10:25:02.694Z,1003.83
2022-11-23T10:26:02.864Z,1003.84
2022-11-23T10:27:03.065Z,1003.82
2022-11-23T10:28:03.200Z,1003.73
2022-11-23T10:29:03.377Z,1003.75
2022-11-23T10:30:03.565Z,1003.73
2022-11-23T10:31:03.714Z,1003.71
2022-11-23T10:32:03.909Z,1003.70
2022-11-23T10:33:04.060Z,1003.72
2022-11-23T10:34:04.232Z,1003.68
2022-11-23T10:35:04.410Z,1003.70
2022-11-23T10:36:04.577Z,1003.72
2022-11-23T10:37:04.767Z,1003.70
2022-11-23T10:38:04.905Z,1003.71
2022-11-23T10:39:05.086Z,1003.74
2022-11-23T10:40:05.273Z,1003.74
2022-11-23T10:41:05.452Z,1003.75
2022-11-23T10:42:05.626Z,1003.76
2022-11-23T10:43:05.799Z,1003.81
2022-11-23T10:44:05.966Z,1003.80
2022-11-23T10:45:06.144Z,1003.78
2022-11-23T10:46:06.329Z,1003.72
2022-11-23T10:47:06.471Z,1003.72
2022-11-23T10:48:06.634Z,1003.77
2022-11-23T10:49:06.812Z,1003.79
2022-11-23T10:50:06.971Z,1003.78
2022-11-23T10:51:07.159Z,1003.75
2022-11-23T10:52:07.306Z,1003.75
2022-11-23T10:53:07.487Z,1003.76
2022-11-23T10:54:07.651Z,1003.80
2022-11-23T10:55:07.832Z,1003.76
2022-11-23T10:56:08.016Z,1003.75
2022-11-23T10:57:08.191Z,1003.78
2022-11-23T10:58:08.362Z,1003.77
2022-11-23T10:59:08.542Z,1003.78
2022-11-23T11:00:08.742Z,1003.76
2022-11-23T11:01:08.882Z,1003.80
2022-11-23T11:02:09.125Z,1003.75
2022-11-23T11:03:09.401Z,1003.78
2022-11-23T11:04:09.413Z,1003.81
2022-11-23T11:05:09.595Z,1003.74
2022-11-23T11:06:10.830Z,1003.74
2022-11-23T11:07:09.990Z,1003.74
2022-11-23T11:08:10.120Z,1003.73
2022-11-23T11:09:13.552Z,1003.78
2022-11-23T11:10:10.503Z,1003.76
2022-11-23T11:11:10.669Z,1003.76
2022-11-23T11:12:10.848Z,1003.74
2022-11-23T11:13:11.040Z,1003.74
2022-11-23T11:14:11.225Z,1003.74
2022-11-23T11:15:12.347Z,1003.71
2022-11-23T11:16:11.578Z,1003.72
2022-11-23T11:17:11.756Z,1003.70
2022-11-23T11:18:11.936Z,1003.67
2022-11-23T11:19:12.138Z,1003.67
2022-11-23T11:20:12.323Z,1003.67
2022-11-23T11:21:12.508Z,1003.65
2022-11-23T11:22:12.657Z,1003.63
2022-11-23T11:23:12.859Z,1003.63
2022-11-23T11:24:13.009Z,1003.63
2022-11-23T11:25:13.218Z,1003.60
2022-11-23T11:26:13.373Z,1003.61
2022-11-23T11:27:13.576Z,1003.61
2022-11-23T11:28:13.749Z,1003.61
2022-11-23T11:29:13.914Z,1003.57
2022-11-23T11:30:14.134Z,1003.59
2022-11-23T11:31:14.266Z,1003.56
2022-11-23T11:32:14.420Z,1003.59
2022-11-23T11:33:14.627Z,1003.56
2022-11-23T11:34:14.796Z,1003.56
2022-11-23T11:35:20.591Z,1003.56
2022-11-23T11:36:16.169Z,1003.56
2022-11-23T11:37:15.322Z,1003.59
2022-11-23T11:38:15.501Z,1003.59
2022-11-23T11:39:18.673Z,1003.64
2022-11-23T11:40:15.837Z,1003.61
2022-11-23T11:41:16.019Z,1003.55
2022-11-23T11:42:16.184Z,1003.59
2022-11-23T11:43:16.382Z,1003.61
2022-11-23T11:44:16.542Z,1003.56
2022-11-23T11:45:16.733Z,1003.57
2022-11-23T11:46:32.351Z,1003.56
2022-11-23T11:47:18.084Z,1003.56
2022-11-23T11:48:17.275Z,1003.60
2022-11-23T11:49:17.489Z,1003.60
2022-11-23T11:50:17.612Z,1003.59
2022-11-23T11:51:17.796Z,1003.60
2022-11-23T11:52:17.975Z,1003.59
2022-11-23T11:53:18.151Z,1003.58
2022-11-23T11:54:18.355Z,1003.58
2022-11-23T11:55:18.493Z,1003.59
2022-11-23T11:56:18.693Z,1003.62
2022-11-23T11:57:18.850Z,1003.62
2022-11-23T11:58:19.036Z,1003.63
2022-11-23T11:59:19.257Z,1003.57
2022-11-23T12:00:19.385Z,1003.58
2022-11-23T12:01:19.549Z,1003.60
2022-11-23T12:02:19.736Z,1003.58
2022-11-23T12:03:20.004Z,1003.60
2022-11-23T12:04:20.107Z,1003.58
2022-11-23T12:05:20.279Z,1003.59
2022-11-23T12:06:26.299Z,1003.60
2022-11-23T12:07:21.671Z,1003.60